Time;durP1;ratioP1;P1;durP2;ratioP2;P2;SDS_P1;SDS_P2;PMS_P1;PMS_P2;Temp;Humidity;BMP_temperature;BMP_pressure;BME280_temperature;BME280_humidity;BME280_pressure;Samples;Min_cycle;Max_cycle;Signal;HPM_P1;HPM_P2
2023/10/09 00:01:46;;;;;;;10.15;4.10;;;14.30;99.90;;;;;;5083515;28;20127;-85
2023/10/09 00:04:13;;;;;;;9.05;4.03;;;14.30;99.90;;;;;;5073574;28;20036;-84
2023/10/09 00:06:41;;;;;;;9.57;3.85;;;14.30;99.90;;;;;;5072985;28;20048;-85
2023/10/09 00:11:48;;;;;;;9.93;4.18;;;14.30;99.90;;;;;;5064679;28;20036;-85
2023/10/09 00:14:15;;;;;;;11.20;5.00;;;14.30;99.90;;;;;;5068276;28;20489;-86
2023/10/09 00:16:48;;;;;;;10.05;4.30;;;14.30;99.90;;;;;;5056581;28;20044;-85
2023/10/09 00:19:19;;;;;;;11.77;4.85;;;14.30;99.90;;;;;;5071065;28;20558;-86
2023/10/09 00:21:46;;;;;;;12.18;4.80;;;14.30;99.90;;;;;;5072046;28;20127;-85
2023/10/09 00:24:13;;;;;;;11.95;4.65;;;14.20;99.90;;;;;;5073370;28;20401;-86
2023/10/09 00:26:48;;;;;;;11.57;4.40;;;14.30;99.90;;;;;;5055974;28;20036;-85
2023/10/09 00:29:16;;;;;;;11.77;4.82;;;14.30;99.90;;;;;;5055816;28;20139;-86
2023/10/09 00:31:49;;;;;;;11.63;4.82;;;14.20;99.90;;;;;;5071862;28;20047;-86
2023/10/09 00:34:19;;;;;;;12.43;5.18;;;14.30;99.90;;;;;;5056720;28;20131;-85
2023/10/09 00:36:52;;;;;;;9.98;4.70;;;14.20;99.90;;;;;;5072007;28;20047;-87
2023/10/09 00:42:00;;;;;;;12.60;5.40;;;14.20;99.90;;;;;;5071955;28;20072;-86
2023/10/09 00:44:37;;;;;;;14.95;5.57;;;14.30;99.90;;;;;;5056120;28;20505;-85
2023/10/09 00:47:20;;;;;;;15.05;5.10;;;14.30;99.90;;;;;;5051938;28;20033;-86
2023/10/09 00:49:49;;;;;;;13.05;5.68;;;14.30;99.90;;;;;;5071975;28;20036;-86
2023/10/09 00:52:23;;;;;;;15.02;5.93;;;14.40;99.90;;;;;;5071888;28;20028;-86
2023/10/09 00:54:51;;;;;;;13.52;6.30;;;14.30;99.90;;;;;;5071957;28;20570;-84
2023/10/09 00:57:24;;;;;;;12.82;5.72;;;14.30;99.90;;;;;;5073028;28;20032;-89
2023/10/09 00:59:59;;;;;;;12.40;6.10;;;14.30;99.90;;;;;;5055905;28;20044;-87
2023/10/09 01:02:35;;;;;;;14.73;7.38;;;14.30;99.90;;;;;;5071021;28;20045;-87
2023/10/09 01:05:11;;;;;;;19.30;7.82;;;14.40;99.90;;;;;;5040651;28;20505;-86
2023/10/09 01:07:44;;;;;;;16.40;7.25;;;14.40;99.90;;;;;;5055872;28;20041;-86
2023/10/09 01:10:11;;;;;;;14.38;6.60;;;14.30;99.90;;;;;;5054414;28;20048;-85
2023/10/09 01:12:43;;;;;;;15.55;7.63;;;14.20;99.90;;;;;;5071839;28;20036;-87
2023/10/09 01:15:17;;;;;;;14.90;6.72;;;14.30;99.90;;;;;;5035737;28;20044;-87
2023/10/09 01:17:45;;;;;;;15.02;6.85;;;14.20;99.90;;;;;;5067021;28;20495;-85
2023/10/09 01:20:27;;;;;;;17.38;8.13;;;14.30;99.90;;;;;;5059796;28;20040;-86
2023/10/09 01:22:52;;;;;;;15.93;7.82;;;14.30;99.90;;;;;;5066978;28;20066;-85
2023/10/09 01:25:20;;;;;;;17.90;7.53;;;14.20;99.90;;;;;;5054548;28;20045;-86
2023/10/09 01:27:45;;;;;;;15.00;7.40;;;14.20;99.90;;;;;;5068589;28;20043;-86
2023/10/09 01:30:13;;;;;;;15.23;8.32;;;14.20;99.90;;;;;;5055312;28;20036;-86
2023/10/09 01:32:40;;;;;;;18.65;8.35;;;14.20;99.90;;;;;;5054441;28;20049;-86
2023/10/09 01:35:14;;;;;;;16.60;7.72;;;14.20;99.90;;;;;;5065511;28;20143;-86
2023/10/09 01:37:43;;;;;;;17.15;7.82;;;14.20;99.90;;;;;;5055461;28;20540;-86
2023/10/09 01:42:52;;;;;;;15.18;7.53;;;14.20;99.90;;;;;;5053620;28;20053;-86
2023/10/09 01:47:51;;;;;;;18.92;9.02;;;14.20;99.90;;;;;;5071310;28;20048;-86
2023/10/09 01:50:22;;;;;;;18.30;8.82;;;14.20;99.90;;;;;;5055036;28;20047;-86
2023/10/09 01:52:53;;;;;;;18.33;9.27;;;14.20;99.90;;;;;;5070345;28;20037;-86
2023/10/09 02:00:53;;;;;;;19.75;9.57;;;14.30;99.90;;;;;;5051972;28;20051;-85
2023/10/09 02:03:23;;;;;;;17.77;8.68;;;14.20;99.90;;;;;;5055066;28;20048;-86
2023/10/09 02:05:50;;;;;;;21.20;9.82;;;14.20;99.90;;;;;;5053511;28;20051;-85
2023/10/09 02:08:21;;;;;;;17.45;8.80;;;14.20;99.90;;;;;;5054263;28;20048;-86
2023/10/09 02:10:48;;;;;;;17.55;9.00;;;14.20;99.90;;;;;;5054189;28;20489;-85
2023/10/09 02:13:28;;;;;;;19.98;10.02;;;14.20;99.90;;;;;;5055130;28;20374;-86
2023/10/09 02:16:13;;;;;;;17.42;9.23;;;14.20;99.90;;;;;;5057030;28;20035;-86
2023/10/09 02:18:56;;;;;;;20.08;10.05;;;14.20;99.90;;;;;;5075595;28;20068;-86
2023/10/09 02:21:39;;;;;;;18.17;9.60;;;14.20;99.90;;;;;;5058041;28;20043;-85
2023/10/09 02:24:12;;;;;;;18.00;9.20;;;14.20;99.90;;;;;;5058911;28;20131;-86
2023/10/09 02:29:15;;;;;;;20.73;10.95;;;14.20;99.90;;;;;;5075610;28;20083;-86
2023/10/09 02:31:41;;;;;;;19.70;10.50;;;14.20;99.90;;;;;;5057982;28;20041;-86
2023/10/09 02:34:15;;;;;;;19.45;10.68;;;14.20;99.90;;;;;;5058794;28;20362;-86
2023/10/09 02:36:49;;;;;;;20.35;10.57;;;14.20;99.90;;;;;;5057375;28;20041;-86
2023/10/09 02:39:28;;;;;;;21.60;11.10;;;14.20;99.90;;;;;;5074410;28;20116;-85
2023/10/09 02:42:01;;;;;;;20.20;11.05;;;14.20;99.90;;;;;;5075280;28;20441;-86
2023/10/09 02:44:39;;;;;;;20.80;11.25;;;14.30;99.90;;;;;;5075286;28;20400;-86
2023/10/09 02:47:11;;;;;;;21.20;11.57;;;14.20;99.90;;;;;;5056997;28;20111;-87
2023/10/09 02:49:39;;;;;;;22.75;11.18;;;14.20;99.90;;;;;;5058354;28;20036;-86
2023/10/09 02:52:07;;;;;;;21.77;11.02;;;14.20;99.90;;;;;;5058142;28;20039;-86
2023/10/09 02:54:41;;;;;;;21.38;11.85;;;14.20;99.90;;;;;;5057592;28;20497;-85
2023/10/09 02:57:07;;;;;;;21.48;10.88;;;14.20;99.90;;;;;;5071410;28;20044;-85
2023/10/09 02:59:41;;;;;;;20.15;10.93;;;14.20;99.90;;;;;;5074781;28;20039;-86
2023/10/09 03:02:07;;;;;;;20.40;11.45;;;14.30;99.90;;;;;;5058023;28;20078;-86
2023/10/09 03:04:33;;;;;;;20.08;11.57;;;14.20;99.90;;;;;;5058271;28;20032;-86
2023/10/09 03:06:59;;;;;;;23.25;12.25;;;14.20;99.90;;;;;;5073133;28;20048;-85
2023/10/09 03:09:28;;;;;;;21.30;12.68;;;14.30;99.90;;;;;;5056346;28;20048;-85
2023/10/09 03:12:01;;;;;;;25.23;13.07;;;14.30;99.90;;;;;;5074357;28;20089;-85
2023/10/09 03:14:30;;;;;;;25.80;14.07;;;14.30;99.90;;;;;;5057840;28;20089;-85
2023/10/09 03:16:57;;;;;;;19.58;11.40;;;14.30;99.90;;;;;;5073556;28;20044;-85
2023/10/09 03:19:26;;;;;;;23.77;13.43;;;14.30;99.90;;;;;;5056142;28;20044;-85
2023/10/09 03:21:52;;;;;;;24.70;13.52;;;14.20;99.90;;;;;;5057086;28;20064;-85
2023/10/09 03:24:19;;;;;;;25.65;14.57;;;14.30;99.90;;;;;;5057144;28;20546;-86
2023/10/09 03:26:45;;;;;;;28.73;14.27;;;14.30;99.90;;;;;;5037406;28;20033;-85
2023/10/09 03:29:11;;;;;;;24.40;13.77;;;14.20;99.90;;;;;;5068505;28;20036;-86
2023/10/09 03:31:37;;;;;;;25.35;14.32;;;14.30;99.90;;;;;;5053176;28;20033;-85
2023/10/09 03:34:04;;;;;;;27.30;15.68;;;14.40;99.90;;;;;;5054081;28;20081;-86
2023/10/09 03:36:30;;;;;;;25.98;14.93;;;14.30;99.90;;;;;;5060482;28;20047;-86
2023/10/09 03:38:58;;;;;;;27.17;15.23;;;14.30;99.90;;;;;;5048822;28;20112;-86
2023/10/09 03:41:28;;;;;;;25.92;15.02;;;14.20;99.90;;;;;;5053903;28;20065;-86
2023/10/09 03:43:54;;;;;;;26.63;16.38;;;14.40;99.90;;;;;;5037393;28;20032;-86
2023/10/09 03:46:32;;;;;;;30.00;18.15;;;14.20;99.90;;;;;;5042866;28;20090;-86
2023/10/09 03:49:00;;;;;;;31.67;18.70;;;14.20;99.90;;;;;;5072888;28;20101;-86
2023/10/09 03:51:27;;;;;;;36.47;20.23;;;14.30;99.90;;;;;;5072770;28;20041;-86
2023/10/09 03:53:53;;;;;;;34.35;19.77;;;14.30;99.90;;;;;;5072349;28;20032;-86
2023/10/09 03:56:21;;;;;;;35.70;20.10;;;14.30;99.90;;;;;;5057010;28;20058;-87
2023/10/09 03:58:51;;;;;;;34.67;19.02;;;14.40;99.90;;;;;;5072437;28;20131;-86
2023/10/09 04:03:47;;;;;;;34.75;19.60;;;14.40;99.90;;;;;;5073964;28;20044;-86
2023/10/09 04:06:13;;;;;;;33.72;18.70;;;14.40;99.90;;;;;;5056840;28;20047;-86
2023/10/09 04:08:47;;;;;;;33.85;18.13;;;14.40;99.90;;;;;;5056860;28;20036;-86
2023/10/09 04:11:16;;;;;;;32.38;18.35;;;14.50;99.90;;;;;;5069914;28;20048;-86
2023/10/09 04:13:49;;;;;;;28.90;17.92;;;14.50;99.90;;;;;;5090385;28;20040;-86
2023/10/09 04:19:05;;;;;;;36.33;19.35;;;14.50;99.90;;;;;;5072629;28;20044;-85
2023/10/09 04:21:34;;;;;;;36.90;19.17;;;14.50;99.90;;;;;;5047687;28;20079;-86
2023/10/09 04:26:44;;;;;;;40.47;21.13;;;14.60;99.90;;;;;;5053485;28;20099;-86
2023/10/09 04:29:18;;;;;;;38.15;20.60;;;14.60;99.90;;;;;;5053542;28;20102;-86
2023/10/09 04:31:46;;;;;;;36.90;19.95;;;14.60;99.90;;;;;;5060730;28;20086;-87
2023/10/09 04:39:47;;;;;;;36.88;21.80;;;14.70;99.90;;;;;;5073284;28;20040;-87
2023/10/09 04:47:37;;;;;;;30.02;18.50;;;14.70;99.90;;;;;;5073081;28;20047;-86
2023/10/09 04:50:15;;;;;;;32.47;18.92;;;14.70;99.90;;;;;;5056352;28;20036;-87
2023/10/09 05:03:12;;;;;;;33.67;18.98;;;14.80;99.90;;;;;;5018664;28;20509;-85
2023/10/09 05:11:00;;;;;;;34.95;19.08;;;15.00;99.90;;;;;;5067035;28;20041;-85
2023/10/09 05:16:13;;;;;;;30.65;18.50;;;15.00;99.90;;;;;;5072244;28;20086;-86
2023/10/09 05:18:39;;;;;;;33.40;18.92;;;15.00;99.90;;;;;;5055702;28;20048;-86
2023/10/09 05:24:10;;;;;;;32.22;19.02;;;15.00;99.90;;;;;;5053736;28;20182;-86
2023/10/09 05:29:24;;;;;;;32.83;18.40;;;15.10;99.90;;;;;;5072352;28;20041;-85
2023/10/09 05:35:15;;;;;;;35.65;19.23;;;15.10;99.90;;;;;;5051548;28;20124;-86
2023/10/09 05:37:17;;;;;;;33.97;19.35;;;15.10;99.90;;;;;;5044201;28;20481;-87
2023/10/09 05:48:06;;;;;;;32.63;19.13;;;15.30;99.90;;;;;;5052064;28;20564;-86
2023/10/09 05:50:37;;;;;;;30.75;18.38;;;15.30;99.90;;;;;;5035313;28;20037;-86
2023/10/09 05:57:09;;;;;;;32.65;16.83;;;15.30;99.90;;;;;;5053151;28;20056;-86
2023/10/09 06:04:15;;;;;;;30.58;17.48;;;15.40;99.90;;;;;;5034739;28;20496;-87
2023/10/09 06:06:44;;;;;;;28.42;15.88;;;15.40;99.90;;;;;;5064679;28;20037;-87
2023/10/09 06:12:32;;;;;;;32.28;15.60;;;15.40;99.90;;;;;;5064384;28;20053;-86
2023/10/09 06:19:45;;;;;;;33.20;15.70;;;15.50;99.90;;;;;;5071583;28;20133;-86
2023/10/09 06:24:57;;;;;;;27.85;15.90;;;15.50;99.90;;;;;;5070380;28;20390;-86
2023/10/09 06:32:58;;;;;;;24.58;12.93;;;15.50;99.90;;;;;;5066142;28;20041;-86
2023/10/09 06:35:30;;;;;;;25.60;14.60;;;15.60;99.90;;;;;;5071420;28;20121;-86
2023/10/09 06:43:36;;;;;;;22.40;11.82;;;15.60;99.90;;;;;;5068836;28;20127;-85
2023/10/09 06:48:55;;;;;;;22.15;11.25;;;15.70;99.90;;;;;;5085957;28;20052;-85
2023/10/09 06:56:48;;;;;;;20.05;9.98;;;15.70;99.90;;;;;;5054910;28;20516;-86
2023/10/09 06:59:21;;;;;;;23.73;10.33;;;15.70;99.90;;;;;;5068307;28;20076;-85
2023/10/09 07:06:59;;;;;;;20.13;9.38;;;15.70;99.90;;;;;;5054258;28;20075;-83
2023/10/09 07:09:42;;;;;;;24.67;10.02;;;15.80;99.90;;;;;;5068451;28;20078;-82
2023/10/09 07:12:11;;;;;;;16.05;8.75;;;15.70;99.90;;;;;;5055425;28;20044;-82
2023/10/09 07:17:15;;;;;;;16.65;9.20;;;15.70;99.90;;;;;;5073444;28;20043;-81
2023/10/09 07:24:58;;;;;;;20.08;7.85;;;15.70;99.90;;;;;;5072016;28;20045;-80
2023/10/09 07:38:44;;;;;;;16.52;8.10;;;15.80;99.90;;;;;;5063371;28;20178;-79
2023/10/09 07:46:51;;;;;;;19.98;8.10;;;15.80;99.90;;;;;;5083523;28;20059;-79
2023/10/09 07:49:24;;;;;;;18.83;7.55;;;15.80;99.90;;;;;;5070184;28;20037;-79
2023/10/09 07:51:52;;;;;;;15.65;7.78;;;15.80;99.90;;;;;;5090263;28;20086;-79
2023/10/09 07:54:31;;;;;;;15.82;7.55;;;15.80;99.90;;;;;;5073113;28;20040;-79
2023/10/09 07:57:08;;;;;;;15.60;7.50;;;15.80;99.90;;;;;;5060724;28;20125;-79
2023/10/09 07:59:41;;;;;;;18.45;7.88;;;15.80;99.90;;;;;;5078452;28;20413;-78
2023/10/09 08:02:13;;;;;;;22.08;8.68;;;15.80;99.90;;;;;;5045904;28;20089;-78
2023/10/09 08:04:39;;;;;;;18.00;8.00;;;15.80;99.90;;;;;;5077460;28;20110;-78
2023/10/09 08:07:34;;;;;;;13.95;7.40;;;15.90;99.90;;;;;;5053745;28;20355;-77
2023/10/09 08:18:13;;;;;;;18.73;8.02;;;15.90;99.90;;;;;;5071774;28;20554;-77
2023/10/09 08:21:19;;;;;;;15.48;7.22;;;15.90;99.90;;;;;;5071355;28;20458;-77
2023/10/09 08:24:35;;;;;;;18.42;7.80;;;15.90;99.90;;;;;;5071771;28;20051;-78
2023/10/09 08:26:28;;;;;;;16.05;7.88;;;16.00;99.90;;;;;;5068913;28;20040;-78
2023/10/09 08:29:15;;;;;;;19.20;8.02;;;16.00;99.90;;;;;;5060420;28;20043;-78
2023/10/09 08:31:47;;;;;;;17.88;8.15;;;16.00;99.90;;;;;;5069097;28;20048;-80
2023/10/09 08:34:24;;;;;;;19.70;7.80;;;16.00;99.90;;;;;;5082589;28;20068;-83
2023/10/09 08:36:53;;;;;;;16.77;7.60;;;16.00;99.90;;;;;;5047488;28;20033;-83
2023/10/09 08:39:27;;;;;;;18.30;7.60;;;16.00;99.90;;;;;;5055815;28;20044;-77
2023/10/09 08:42:01;;;;;;;20.50;8.43;;;16.00;99.90;;;;;;5053291;28;20037;-77
2023/10/09 08:44:29;;;;;;;18.92;7.93;;;16.10;99.90;;;;;;5067912;28;20041;-76
2023/10/09 08:46:55;;;;;;;22.45;8.10;;;16.10;99.90;;;;;;5068946;28;20087;-76
2023/10/09 08:49:21;;;;;;;21.13;7.82;;;16.20;99.90;;;;;;5051843;28;20555;-76
2023/10/09 08:51:48;;;;;;;24.35;8.63;;;16.10;99.90;;;;;;5067089;28;20036;-75
2023/10/09 08:54:14;;;;;;;27.10;8.95;;;16.10;99.90;;;;;;5071784;28;20032;-75
2023/10/09 08:56:49;;;;;;;16.08;7.95;;;16.00;99.90;;;;;;5063471;28;20459;-86
2023/10/09 08:59:18;;;;;;;21.60;8.38;;;16.10;99.90;;;;;;5051869;28;20067;-73
2023/10/09 09:01:49;;;;;;;23.10;8.27;;;16.00;99.90;;;;;;5053027;28;20040;-72
2023/10/09 09:04:35;;;;;;;21.23;8.13;;;16.10;99.90;;;;;;5069207;28;20086;-73
2023/10/09 09:07:02;;;;;;;19.08;8.38;;;16.10;99.90;;;;;;5051640;28;20416;-73
2023/10/09 09:09:30;;;;;;;16.50;8.02;;;16.10;99.90;;;;;;5052905;28;20037;-74
2023/10/09 09:11:56;;;;;;;17.92;8.30;;;16.10;99.90;;;;;;5056128;28;20123;-74
2023/10/09 09:14:37;;;;;;;23.17;9.15;;;16.00;99.90;;;;;;5067658;28;20147;-74
2023/10/09 09:17:04;;;;;;;20.25;7.53;;;16.10;99.90;;;;;;5072212;28;20087;-75
2023/10/09 09:19:37;;;;;;;17.70;8.13;;;16.10;99.90;;;;;;5060823;28;20492;-74
2023/10/09 09:22:12;;;;;;;17.52;7.65;;;16.10;99.90;;;;;;5050950;28;20078;-74
2023/10/09 09:24:39;;;;;;;19.92;8.90;;;16.10;99.90;;;;;;5065164;28;20036;-75
2023/10/09 09:27:20;;;;;;;17.75;8.55;;;16.10;99.90;;;;;;5055763;28;20048;-75
2023/10/09 09:29:53;;;;;;;16.30;7.78;;;16.20;99.90;;;;;;5061219;28;20036;-75
2023/10/09 09:32:35;;;;;;;14.38;7.20;;;16.20;99.90;;;;;;5070304;28;20044;-75
2023/10/09 09:35:02;;;;;;;20.88;7.93;;;16.20;99.90;;;;;;5066993;28;20035;-74
2023/10/09 09:37:28;;;;;;;17.40;7.45;;;16.20;99.90;;;;;;5069108;28;20047;-74
2023/10/09 09:40:00;;;;;;;16.48;7.97;;;16.20;99.90;;;;;;5059793;28;20477;-74
2023/10/09 09:42:27;;;;;;;16.70;7.63;;;16.20;99.90;;;;;;5046368;28;20056;-74
2023/10/09 09:44:55;;;;;;;14.63;6.93;;;16.20;99.90;;;;;;5069038;28;20086;-74
2023/10/09 09:47:27;;;;;;;15.18;7.82;;;16.20;99.90;;;;;;5054951;28;20451;-74
2023/10/09 09:49:59;;;;;;;;;;;16.20;99.90;;;;;;5052598;28;20037;-74
2023/10/09 09:52:27;;;;;;;21.92;7.75;;;16.30;99.90;;;;;;5065204;28;19917;-74
2023/10/09 09:54:53;;;;;;;17.35;7.70;;;16.30;99.90;;;;;;5041117;28;20044;-74
2023/10/09 09:57:25;;;;;;;18.23;8.38;;;16.30;99.90;;;;;;5068162;28;20109;-74
2023/10/09 09:59:52;;;;;;;18.05;8.30;;;16.30;99.90;;;;;;5057953;28;20085;-74
2023/10/09 10:02:24;;;;;;;19.05;7.63;;;16.30;99.90;;;;;;5063750;28;20516;-74
2023/10/09 10:04:54;;;;;;;18.77;7.22;;;16.40;99.90;;;;;;5071647;28;20045;-75
2023/10/09 10:07:21;;;;;;;15.75;7.70;;;16.40;99.90;;;;;;5064759;28;20028;-75
2023/10/09 10:09:48;;;;;;;14.68;7.05;;;16.50;99.90;;;;;;5052336;28;20047;-75
2023/10/09 10:12:34;;;;;;;18.83;6.85;;;16.50;99.90;;;;;;5057675;28;20180;-75
2023/10/09 10:15:08;;;;;;;17.00;6.70;;;16.50;99.90;;;;;;5041891;28;20489;-75
2023/10/09 10:17:59;;;;;;;21.23;7.60;;;16.40;99.90;;;;;;5068992;28;20036;-75
2023/10/09 10:20:25;;;;;;;14.73;6.50;;;16.60;99.90;;;;;;5071981;28;20040;-75
2023/10/09 10:23:25;;;;;;;15.77;6.78;;;16.50;99.90;;;;;;5052724;28;20174;-75
2023/10/09 10:25:59;;;;;;;15.88;7.20;;;16.60;99.90;;;;;;5053674;28;20396;-75
2023/10/09 10:28:38;;;;;;;19.08;7.07;;;16.60;99.90;;;;;;5069188;28;20086;-75
2023/10/09 10:31:09;;;;;;;17.80;6.50;;;16.60;99.90;;;;;;5070073;28;20556;-75
2023/10/09 10:33:55;;;;;;;19.40;7.28;;;16.50;99.90;;;;;;5051646;28;20602;-75
2023/10/09 10:36:26;;;;;;;18.17;6.90;;;16.70;99.90;;;;;;5070917;28;20044;-75
2023/10/09 10:39:19;;;;;;;15.13;6.47;;;16.70;99.90;;;;;;5073819;28;20047;-75
2023/10/09 10:41:54;;;;;;;20.80;7.88;;;16.70;99.90;;;;;;5065687;28;20049;-75
2023/10/09 10:44:38;;;;;;;17.90;6.80;;;16.70;99.90;;;;;;5059857;28;20131;-75
2023/10/09 10:47:21;;;;;;;13.43;6.35;;;16.70;99.90;;;;;;5046031;28;20461;-75
2023/10/09 10:49:52;;;;;;;16.35;6.50;;;16.70;99.90;;;;;;5064330;28;20037;-75
2023/10/09 10:52:22;;;;;;;17.05;6.00;;;16.70;99.90;;;;;;5070451;28;20084;-75
2023/10/09 10:55:17;;;;;;;16.30;6.55;;;16.70;99.90;;;;;;5052417;28;20045;-75
2023/10/09 10:57:53;;;;;;;18.70;6.35;;;16.70;99.90;;;;;;5071123;28;20045;-75
2023/10/09 11:03:13;;;;;;;17.58;6.40;;;16.80;99.90;;;;;;5064764;28;20551;-75
2023/10/09 11:05:42;;;;;;;16.48;7.03;;;16.80;99.90;;;;;;5057907;28;20052;-75
2023/10/09 11:08:11;;;;;;;16.02;6.40;;;16.70;99.90;;;;;;5067378;28;20432;-73
2023/10/09 11:10:49;;;;;;;20.75;8.65;;;16.80;99.90;;;;;;5056740;28;20040;-75
2023/10/09 11:13:36;;;;;;;18.30;7.07;;;16.70;99.90;;;;;;5056073;28;20036;-75
2023/10/09 11:16:28;;;;;;;17.58;7.25;;;16.80;99.90;;;;;;5071116;28;20044;-75
2023/10/09 11:18:56;;;;;;;19.05;8.20;;;16.80;99.90;;;;;;5063924;28;20173;-75
2023/10/09 11:21:30;;;;;;;18.38;7.10;;;16.70;99.90;;;;;;5037719;28;20047;-75
2023/10/09 11:24:23;;;;;;;20.67;7.53;;;16.70;99.90;;;;;;5083344;28;20052;-75
2023/10/09 11:26:53;;;;;;;19.48;7.45;;;16.80;99.90;;;;;;5070740;28;20044;-75
2023/10/09 11:32:17;;;;;;;19.70;7.10;;;16.80;99.90;;;;;;5069536;28;20049;-75
2023/10/09 11:34:51;;;;;;;19.35;7.82;;;16.80;99.90;;;;;;5056828;28;20029;-74
2023/10/09 11:40:00;;;;;;;17.35;7.00;;;16.60;99.90;;;;;;5070329;28;20040;-75
2023/10/09 11:42:37;;;;;;;13.93;6.40;;;16.80;99.90;;;;;;5056374;28;20032;-74
2023/10/09 11:45:19;;;;;;;15.38;6.18;;;16.80;99.90;;;;;;5056505;28;20389;-75
2023/10/09 11:47:57;;;;;;;14.02;5.25;;;16.80;99.90;;;;;;5054838;28;20032;-74
2023/10/09 11:50:52;;;;;;;14.45;4.97;;;16.80;99.90;;;;;;5053594;28;20405;-74
2023/10/09 11:55:52;;;;;;;17.45;6.03;;;16.80;99.90;;;;;;5072660;28;20106;-74
2023/10/09 11:58:24;;;;;;;13.60;4.30;;;16.80;99.90;;;;;;5072438;28;20386;-75
2023/10/09 12:00:56;;;;;;;12.57;4.53;;;16.80;99.90;;;;;;5055002;28;20560;-74
2023/10/09 12:03:28;;;;;;;13.80;4.05;;;16.80;99.90;;;;;;5068860;28;20040;-75
2023/10/09 12:05:56;;;;;;;12.13;4.10;;;16.90;99.90;;;;;;5055649;28;20086;-75
2023/10/09 12:08:26;;;;;;;11.13;3.65;;;17.00;99.90;;;;;;5052370;28;20045;-74
2023/10/09 12:10:54;;;;;;;12.82;3.88;;;17.00;99.90;;;;;;5053406;28;20405;-75
2023/10/09 12:13:22;;;;;;;11.65;3.90;;;17.10;99.90;;;;;;5060706;28;20485;-75
2023/10/09 12:15:48;;;;;;;13.50;3.42;;;17.10;99.90;;;;;;5055587;28;20036;-74
2023/10/09 12:18:18;;;;;;;13.63;4.40;;;17.10;99.90;;;;;;5056507;28;20047;-74
2023/10/09 12:20:56;;;;;;;10.40;3.72;;;17.10;99.90;;;;;;5077166;28;20040;-75
2023/10/09 12:23:23;;;;;;;11.95;3.80;;;17.20;99.90;;;;;;5071124;28;20110;-75
2023/10/09 12:25:50;;;;;;;10.40;3.40;;;17.20;99.90;;;;;;5064619;28;20049;-75
2023/10/09 12:28:20;;;;;;;10.65;3.47;;;17.20;99.90;;;;;;5072183;28;20044;-75
2023/10/09 12:30:50;;;;;;;8.23;3.08;;;17.20;99.90;;;;;;5072581;28;20158;-75
2023/10/09 12:33:16;;;;;;;11.48;3.80;;;17.20;99.90;;;;;;5072384;28;20111;-75
2023/10/09 12:35:45;;;;;;;13.57;3.78;;;17.10;99.90;;;;;;5073405;28;20111;-75
2023/10/09 12:38:12;;;;;;;12.90;3.75;;;17.00;99.90;;;;;;5072354;28;20047;-75
2023/10/09 12:40:41;;;;;;;15.45;4.03;;;17.10;99.90;;;;;;5055620;28;20040;-75
2023/10/09 12:43:15;;;;;;;11.40;3.08;;;17.00;99.90;;;;;;5051614;28;20033;-75
2023/10/09 12:45:42;;;;;;;10.38;2.95;;;17.10;99.90;;;;;;5055584;28;20503;-75
2023/10/09 12:48:09;;;;;;;10.48;3.30;;;17.10;99.90;;;;;;5055702;28;20036;-75
2023/10/09 12:50:41;;;;;;;11.25;2.88;;;17.20;99.90;;;;;;5055721;28;20044;-75
2023/10/09 12:53:07;;;;;;;;;;;17.30;99.90;;;;;;5062344;28;20036;-75
2023/10/09 12:55:43;;;;;;;10.07;3.63;;;17.20;99.90;;;;;;5075444;28;19919;-75
2023/10/09 12:58:14;;;;;;;10.32;3.00;;;17.20;99.90;;;;;;5075147;28;20050;-75
2023/10/09 13:00:44;;;;;;;11.00;3.05;;;17.20;99.90;;;;;;5074784;28;20403;-76
2023/10/09 13:03:18;;;;;;;9.35;2.78;;;17.20;99.90;;;;;;5072160;28;20032;-75
2023/10/09 13:05:51;;;;;;;11.82;3.42;;;17.20;99.90;;;;;;5087049;28;20036;-75
2023/10/09 13:08:40;;;;;;;9.63;2.67;;;17.20;99.90;;;;;;5056281;28;20049;-75
2023/10/09 13:11:10;;;;;;;11.20;2.70;;;17.40;99.90;;;;;;5050023;28;20119;-76
2023/10/09 13:13:41;;;;;;;8.98;2.80;;;17.40;99.90;;;;;;5070872;28;20048;-75
2023/10/09 13:16:22;;;;;;;10.82;2.58;;;17.50;99.90;;;;;;5077629;28;20037;-75
2023/10/09 13:18:51;;;;;;;12.07;3.03;;;17.50;99.90;;;;;;5068539;28;20054;-76
2023/10/09 13:21:21;;;;;;;9.30;2.58;;;17.60;99.90;;;;;;5072072;28;20047;-76
2023/10/09 13:23:49;;;;;;;11.05;2.65;;;17.60;99.90;;;;;;5067170;28;20045;-76
2023/10/09 13:26:21;;;;;;;10.55;4.25;;;17.50;99.90;;;;;;5057092;28;20504;-76
2023/10/09 13:28:51;;;;;;;11.18;2.60;;;17.60;99.90;;;;;;5070933;28;20462;-76
2023/10/09 13:31:18;;;;;;;9.90;2.60;;;17.40;99.90;;;;;;5053847;28;20043;-76
2023/10/09 13:33:45;;;;;;;11.20;3.00;;;17.40;99.90;;;;;;5053267;28;20032;-75
2023/10/09 13:38:56;;;;;;;10.82;2.55;;;17.40;99.90;;;;;;5078605;28;20041;-76
2023/10/09 13:41:25;;;;;;;10.93;2.63;;;17.30;99.90;;;;;;5047090;28;20059;-76
2023/10/09 13:43:51;;;;;;;7.50;2.03;;;17.30;99.90;;;;;;5050770;28;20041;-76
2023/10/09 13:46:17;;;;;;;6.93;2.20;;;17.30;99.90;;;;;;5054337;28;20036;-76
2023/10/09 13:48:45;;;;;;;8.50;2.25;;;17.30;99.90;;;;;;5068465;28;20135;-76
2023/10/09 13:51:17;;;;;;;11.35;2.67;;;17.30;99.90;;;;;;5062213;28;20370;-76
2023/10/09 13:53:47;;;;;;;11.52;2.40;;;17.30;99.90;;;;;;5070823;28;20366;-76
2023/10/09 13:56:20;;;;;;;9.07;2.63;;;17.30;99.90;;;;;;5053298;28;20131;-76
2023/10/09 13:58:49;;;;;;;6.60;2.10;;;17.30;99.90;;;;;;5070569;28;20052;-76
2023/10/09 14:01:27;;;;;;;9.70;2.88;;;17.30;99.90;;;;;;5053690;28;20053;-77
2023/10/09 14:03:58;;;;;;;5.60;1.70;;;17.30;99.90;;;;;;5058555;28;20500;-76
2023/10/09 14:06:33;;;;;;;5.60;2.15;;;17.40;99.90;;;;;;5053195;28;20037;-76
2023/10/09 14:09:09;;;;;;;8.70;2.35;;;17.30;99.90;;;;;;5053347;28;20123;-76
2023/10/09 14:11:39;;;;;;;7.38;2.28;;;17.20;99.90;;;;;;5074660;28;20040;-76
2023/10/09 14:14:09;;;;;;;6.03;2.25;;;17.20;99.90;;;;;;5054405;28;20028;-77
2023/10/09 14:16:36;;;;;;;6.07;2.28;;;17.20;99.90;;;;;;5072922;28;20033;-77
2023/10/09 14:19:07;;;;;;;10.20;2.83;;;17.10;99.90;;;;;;5075395;28;20040;-77
2023/10/09 14:21:37;;;;;;;8.40;2.33;;;17.10;99.90;;;;;;5056465;28;20377;-77
2023/10/09 14:24:03;;;;;;;8.82;2.53;;;17.20;99.90;;;;;;5073243;28;20045;-82
2023/10/09 14:26:29;;;;;;;8.85;2.35;;;17.10;99.90;;;;;;5057083;28;20055;-77
2023/10/09 14:28:58;;;;;;;9.27;2.97;;;17.10;99.90;;;;;;5056934;28;20044;-77
2023/10/09 14:31:28;;;;;;;7.35;2.40;;;17.20;99.90;;;;;;5067726;28;20094;-77
2023/10/09 14:33:57;;;;;;;6.85;2.10;;;17.10;99.90;;;;;;5056032;28;20044;-77
2023/10/09 14:36:24;;;;;;;9.00;2.20;;;17.00;99.90;;;;;;5063501;28;20037;-77
2023/10/09 14:38:52;;;;;;;10.05;2.17;;;17.10;99.90;;;;;;5080182;28;20127;-77
2023/10/09 14:41:23;;;;;;;7.50;2.20;;;17.10;99.90;;;;;;5072270;28;20048;-83
2023/10/09 14:43:50;;;;;;;6.05;2.45;;;17.00;99.90;;;;;;5057530;28;20044;-84
2023/10/09 14:46:16;;;;;;;10.07;2.50;;;17.00;99.90;;;;;;5074498;28;20493;-84
2023/10/09 14:48:45;;;;;;;10.00;2.20;;;17.00;99.90;;;;;;5057598;28;20043;-83
2023/10/09 14:51:13;;;;;;;8.25;2.97;;;17.00;99.90;;;;;;5072326;28;20041;-76
2023/10/09 14:53:40;;;;;;;10.85;2.83;;;17.00;99.90;;;;;;5056998;28;20119;-76
2023/10/09 14:56:09;;;;;;;7.60;2.33;;;17.00;99.90;;;;;;5084437;28;20056;-76
2023/10/09 14:58:35;;;;;;;6.57;2.10;;;17.10;99.90;;;;;;5055060;28;20559;-76
2023/10/09 15:01:09;;;;;;;5.00;2.22;;;17.00;99.90;;;;;;5073778;28;20028;-76
2023/10/09 15:03:37;;;;;;;8.38;3.17;;;16.90;99.90;;;;;;5056992;28;20496;-76
2023/10/09 15:06:03;;;;;;;7.50;2.90;;;17.00;99.90;;;;;;5080257;28;20063;-77
2023/10/09 15:08:29;;;;;;;8.88;2.55;;;17.00;99.90;;;;;;5060462;28;20053;-76
2023/10/09 15:10:56;;;;;;;7.70;2.60;;;17.00;99.90;;;;;;5053590;28;20044;-76
2023/10/09 15:13:27;;;;;;;10.80;2.42;;;16.90;99.90;;;;;;5064595;28;20071;-76
2023/10/09 15:15:55;;;;;;;9.30;2.60;;;16.90;99.90;;;;;;5055893;28;20094;-76
2023/10/09 15:18:21;;;;;;;8.95;2.45;;;16.90;99.90;;;;;;5055841;28;20385;-76
2023/10/09 15:20:48;;;;;;;8.02;2.40;;;16.90;99.90;;;;;;5058610;28;20473;-76
2023/10/09 15:23:14;;;;;;;9.98;3.10;;;16.90;99.90;;;;;;5037057;28;20037;-76
2023/10/09 15:25:42;;;;;;;11.43;4.30;;;16.80;99.90;;;;;;5061644;28;20123;-76
2023/10/09 15:28:09;;;;;;;11.80;2.88;;;16.80;99.90;;;;;;5057132;28;20040;-76
2023/10/09 15:30:40;;;;;;;8.52;2.60;;;16.80;99.90;;;;;;5055655;28;20043;-76
2023/10/09 15:33:07;;;;;;;9.98;2.80;;;16.80;99.90;;;;;;5056634;28;20427;-76
2023/10/09 15:35:36;;;;;;;8.15;2.42;;;16.80;99.90;;;;;;5071184;28;20032;-76
2023/10/09 15:38:05;;;;;;;8.82;2.28;;;16.80;99.90;;;;;;5072706;28;20041;-76
2023/10/09 15:40:35;;;;;;;9.98;2.67;;;16.80;99.90;;;;;;5063031;28;20051;-76